Verkhniy Tagil, Russia
Current Conditions -  °F | °C
As of 3:00 PM on Saturday 20 Dec 2014 (Local Time) from USSS Reporting Station
Overcast Overcast  
Wind Chill: 19°   Ceiling: 1900
Heat Index: 27°   Visibility: 6mi
Dew Point: 23°   Wind: 7mph
Humidity: 86%   Direction: 180°S
Pressure: 29.88"   Gusts: NA
Location:  57.38°N, 59.96°E
Report Text: USSS 201000Z 18003MPS 9999 OVC019 M03/M05 Q1012 76520237 NOSIGRMK QFE738
Loading
Personal Weather Stations






























Interactive Weather Map New forecast layout! Learn more

10-Day Weather Forecast

Advertisements
Track Severe Weather on mobile